Iris Victoria — V7TS8 — position and weather

sailwx.info

Track history (hours):
 
Tides and Currents Weather Stations Pressure Air Temp Water Temp Dewpoint Dewpoint Depression Visibility Wind Speed Wind Dir Waves Ship Positions

Iris Victoria

Last reported at 2016-Apr-27 03:33 UTC. Time now 2016-Apr-30 03:19 UTC.
Position N 08°31' W 016°01'.

Length 228 m; draft 14.5 m.

Type: Tanker. MMSI: 538003876.

Date/timePositionNaut miles runAvg speedWind from/ knotsBaromVisibWave heightAir tempDewpointWater temp
2016-Apr-27 03:33N 08°31' W 016°01'4213.0
2016-Apr-27 00:21N 09°01' W 016°30'29412.2
2016-Apr-26 00:09N 13°35' W 018°20'812.2
2016-Apr-25 23:29N 13°43' W 018°20'1312.7
2016-Apr-25 22:27N 13°56' W 018°20'  
2016-Apr-23 04:33N 27°29' W 015°16'1413.7
2016-Apr-23 03:33N 27°41' W 015°11'1313.5
2016-Apr-23 02:34N 27°54' W 015°05'1413.8
2016-Apr-23 01:33N 28°07' W 014°60'1313.4
2016-Apr-23 00:33N 28°20' W 014°55'1413.6
2016-Apr-22 23:33N 28°33' W 014°51'1413.7
2016-Apr-22 22:31N 28°47' W 014°48'1313.7
2016-Apr-22 21:32N 28°60' W 014°45'1413.8
2016-Apr-22 20:32N 29°13' W 014°42'  
2016-Apr-18 04:33N 49°45' W 003°54'1211.8
2016-Apr-18 03:33N 49°50' W 003°38'1211.7
2016-Apr-18 02:33N 49°55' W 003°21'1212.4
2016-Apr-18 01:33N 49°58' W 003°03'1713.4
2016-Apr-18 00:20N 50°03' W 002°38'8712.8
2016-Apr-17 17:33N 50°26' W 000°27'1111.0
2016-Apr-17 16:33N 50°28' W 000°10'1211.8
2016-Apr-17 15:32N 50°31' E 000°08'1312.8
2016-Apr-17 14:30N 50°35' E 000°28'2613.4
2016-Apr-17 12:33N 50°48' E 001°04'1312.6
2016-Apr-17 11:33N 50°55' E 001°19'1111.3
2016-Apr-17 10:33N 51°04' E 001°31'1010.4
2016-Apr-17 09:33N 51°12' E 001°42'1110.7
2016-Apr-17 08:33N 51°21' E 001°52'1211.7
2016-Apr-17 07:33N 51°31' E 002°01'  
Track history (hours):
 
Tides and Currents Weather Stations Pressure Air Temp Water Temp Dewpoint Dewpoint Depression Visibility Wind Speed Wind Dir Waves Ship Positions

Iris Victoria

Last reported at 2016-Apr-27 03:33 UTC. Time now 2016-Apr-30 03:19 UTC.
Position N 08°31' W 016°01'.

Length 228 m; draft 14.5 m.

Type: Tanker. MMSI: 538003876.

Date/timePositionNaut miles runAvg speedWind from/ knotsBaromVisibWave heightAir tempDewpointWater temp
2016-Apr-27 03:33N 08°31' W 016°01'4213.0
2016-Apr-27 00:21N 09°01' W 016°30'29412.2
2016-Apr-26 00:09N 13°35' W 018°20'812.2
2016-Apr-25 23:29N 13°43' W 018°20'1312.7
2016-Apr-25 22:27N 13°56' W 018°20'  
2016-Apr-23 04:33N 27°29' W 015°16'1413.7
2016-Apr-23 03:33N 27°41' W 015°11'1313.5
2016-Apr-23 02:34N 27°54' W 015°05'1413.8
2016-Apr-23 01:33N 28°07' W 014°60'1313.4
2016-Apr-23 00:33N 28°20' W 014°55'1413.6
2016-Apr-22 23:33N 28°33' W 014°51'1413.7
2016-Apr-22 22:31N 28°47' W 014°48'1313.7
2016-Apr-22 21:32N 28°60' W 014°45'1413.8
2016-Apr-22 20:32N 29°13' W 014°42'  
2016-Apr-18 04:33N 49°45' W 003°54'1211.8
2016-Apr-18 03:33N 49°50' W 003°38'1211.7
2016-Apr-18 02:33N 49°55' W 003°21'1212.4
2016-Apr-18 01:33N 49°58' W 003°03'1713.4
2016-Apr-18 00:20N 50°03' W 002°38'8712.8
2016-Apr-17 17:33N 50°26' W 000°27'1111.0
2016-Apr-17 16:33N 50°28' W 000°10'1211.8
2016-Apr-17 15:32N 50°31' E 000°08'1312.8
2016-Apr-17 14:30N 50°35' E 000°28'2613.4
2016-Apr-17 12:33N 50°48' E 001°04'1312.6
2016-Apr-17 11:33N 50°55' E 001°19'1111.3
2016-Apr-17 10:33N 51°04' E 001°31'1010.4
2016-Apr-17 09:33N 51°12' E 001°42'1110.7
2016-Apr-17 08:33N 51°21' E 001°52'1211.7
2016-Apr-17 07:33N 51°31' E 002°01'  

Dump ship's entire track history